Time;durP1;ratioP1;P1;durP2;ratioP2;P2;SDS_P1;SDS_P2;PMS_P1;PMS_P2;Temp;Humidity;BMP_temperature;BMP_pressure;BME280_temperature;BME280_humidity;BME280_pressure;Samples;Min_cycle;Max_cycle;Signal;HPM_P1;HPM_P2
2021/11/12 00:03:20;;;;;;;34.93;20.93;;;9.80;99.90;;;;;;4977507;28;20910;-53
2021/11/12 00:14:04;;;;;;;38.10;20.93;;;9.90;99.90;;;;;;4980661;28;20691;-53
2021/11/12 00:16:30;;;;;;;42.60;20.77;;;10.00;99.90;;;;;;4979570;28;20261;-52
2021/11/12 00:18:57;;;;;;;36.53;20.23;;;9.90;99.90;;;;;;4981674;28;20716;-51
2021/11/12 00:21:24;;;;;;;36.10;22.00;;;9.90;99.90;;;;;;4978957;28;20351;-52
2021/11/12 00:23:52;;;;;;;38.23;20.50;;;9.90;99.90;;;;;;4980279;28;20230;-51
2021/11/12 00:26:19;;;;;;;36.07;21.47;;;9.90;99.90;;;;;;4979479;28;20234;-53
2021/11/12 00:28:51;;;;;;;34.13;20.83;;;9.90;99.90;;;;;;4980552;28;20613;-52
2021/11/12 00:31:38;;;;;;;32.23;20.80;;;9.90;99.90;;;;;;4979584;28;20294;-52
2021/11/12 00:39:31;;;;;;;34.37;20.47;;;9.80;99.90;;;;;;4980135;28;20606;-52
2021/11/12 00:44:42;;;;;;;37.03;20.57;;;9.70;99.90;;;;;;4981060;28;20211;-51
2021/11/12 00:47:25;;;;;;;34.30;20.27;;;9.60;99.90;;;;;;4980238;28;20211;-51
2021/11/12 00:55:25;;;;;;;33.30;20.47;;;9.80;99.90;;;;;;4979615;28;20578;-51
2021/11/12 00:57:53;;;;;;;36.37;20.37;;;9.80;99.90;;;;;;4980236;28;20234;-51
2021/11/12 01:00:22;;;;;;;40.67;22.07;;;9.70;99.90;;;;;;4979424;28;20907;-54
2021/11/12 01:02:49;;;;;;;34.30;20.30;;;9.70;99.90;;;;;;4981555;28;20589;-52
2021/11/12 01:05:16;;;;;;;36.50;20.77;;;9.60;99.90;;;;;;4979961;28;20255;-52
2021/11/12 01:07:43;;;;;;;36.70;21.47;;;9.60;99.90;;;;;;4978321;28;20690;-51
2021/11/12 01:10:13;;;;;;;33.80;21.27;;;9.50;99.90;;;;;;4978930;28;20203;-54
2021/11/12 01:12:42;;;;;;;32.83;20.40;;;9.50;99.90;;;;;;4979558;28;20284;-52
2021/11/12 01:15:12;;;;;;;35.60;21.40;;;9.50;99.90;;;;;;4980344;28;20218;-51
2021/11/12 01:17:40;;;;;;;35.40;22.17;;;9.40;99.90;;;;;;4981469;28;20266;-51
2021/11/12 01:20:08;;;;;;;35.30;21.90;;;9.30;99.90;;;;;;4980357;28;20303;-52
2021/11/12 01:22:35;;;;;;;36.17;22.47;;;9.20;99.90;;;;;;4978987;28;20705;-52
2021/11/12 01:25:05;;;;;;;36.93;21.27;;;9.20;99.90;;;;;;4979637;28;20667;-51
2021/11/12 01:27:33;;;;;;;40.73;22.07;;;9.20;99.90;;;;;;4979166;28;20620;-52
2021/11/12 01:30:00;;;;;;;34.67;22.23;;;9.10;99.90;;;;;;4977965;28;20202;-53
2021/11/12 01:32:27;;;;;;;36.77;22.27;;;9.00;99.90;;;;;;4979718;28;20866;-53
2021/11/12 01:34:57;;;;;;;39.63;23.53;;;9.10;99.90;;;;;;4980971;28;20711;-52
2021/11/12 01:37:26;;;;;;;38.43;22.37;;;9.10;99.90;;;;;;4978139;28;20232;-52
2021/11/12 01:40:00;;;;;;;34.87;22.07;;;9.00;99.90;;;;;;4979691;28;20213;-53
2021/11/12 01:43:04;;;;;;;35.87;21.17;;;9.00;99.90;;;;;;4978652;28;20229;-52
2021/11/12 01:50:56;;;;;;;40.07;23.03;;;8.80;99.90;;;;;;4978198;28;20512;-51
2021/11/12 01:56:33;;;;;;;34.97;21.07;;;8.80;99.90;;;;;;4943878;28;20229;-54
2021/11/12 02:01:47;;;;;;;37.03;20.73;;;8.60;99.90;;;;;;4980250;28;20205;-52
2021/11/12 02:04:17;;;;;;;36.07;22.13;;;8.60;99.90;;;;;;4979583;28;20220;-52
2021/11/12 02:06:44;;;;;;;38.63;22.17;;;8.60;99.90;;;;;;4978227;28;20299;-54
2021/11/12 02:09:18;;;;;;;36.20;21.50;;;8.60;99.90;;;;;;4979770;28;20323;-52
2021/11/12 02:11:51;;;;;;;38.43;22.53;;;8.60;99.90;;;;;;4979171;28;20303;-51
2021/11/12 02:14:20;;;;;;;40.70;21.93;;;8.50;99.90;;;;;;4978458;28;20265;-53
2021/11/12 02:17:22;;;;;;;34.77;20.83;;;8.40;99.90;;;;;;4980117;28;20232;-52
2021/11/12 02:20:08;;;;;;;40.37;20.73;;;8.40;99.90;;;;;;4978944;28;20229;-52
2021/11/12 02:22:37;;;;;;;36.50;21.73;;;8.30;99.90;;;;;;4977048;28;20267;-52
2021/11/12 02:25:25;;;;;;;35.93;20.60;;;8.30;99.90;;;;;;4978094;28;20241;-52
2021/11/12 02:27:57;;;;;;;39.20;21.83;;;8.30;99.90;;;;;;4978568;28;20212;-52
2021/11/12 02:30:27;;;;;;;41.57;23.03;;;8.20;99.90;;;;;;4977828;28;20241;-52
2021/11/12 02:33:02;;;;;;;34.10;22.10;;;8.20;99.90;;;;;;4978163;28;20248;-51
2021/11/12 02:35:31;;;;;;;37.47;22.17;;;8.00;99.90;;;;;;4979003;28;20339;-52
2021/11/12 02:37:59;;;;;;;36.70;22.03;;;8.00;99.90;;;;;;4977568;28;20271;-52
2021/11/12 02:40:26;;;;;;;39.40;22.30;;;8.10;99.90;;;;;;4979825;28;20575;-51
2021/11/12 02:42:53;;;;;;;39.30;22.53;;;8.20;99.90;;;;;;4976943;28;20202;-52
2021/11/12 02:45:20;;;;;;;37.43;21.63;;;8.20;99.90;;;;;;4980513;28;20217;-52
2021/11/12 02:47:47;;;;;;;41.00;22.73;;;8.10;99.90;;;;;;4977962;28;20285;-52
2021/11/12 02:50:15;;;;;;;38.83;21.97;;;8.00;99.90;;;;;;4976105;28;20241;-52
2021/11/12 02:52:44;;;;;;;41.17;22.03;;;8.00;99.90;;;;;;4978360;28;20296;-52
2021/11/12 02:55:10;;;;;;;37.13;22.43;;;8.10;99.90;;;;;;4978044;28;20791;-52
2021/11/12 02:57:37;;;;;;;37.10;21.97;;;8.10;99.90;;;;;;4976277;28;20236;-54
2021/11/12 03:00:07;;;;;;;37.30;22.10;;;8.10;99.90;;;;;;4979953;28;21128;-54
2021/11/12 03:02:35;;;;;;;38.67;21.93;;;8.10;99.90;;;;;;4979113;28;20291;-52
2021/11/12 03:05:03;;;;;;;36.77;20.63;;;8.10;99.90;;;;;;4978898;28;20208;-53
2021/11/12 03:07:30;;;;;;;42.03;22.97;;;8.20;99.90;;;;;;4978653;28;20212;-52
2021/11/12 03:09:57;;;;;;;39.07;22.07;;;8.20;99.90;;;;;;4978523;28;20730;-51
2021/11/12 03:12:24;;;;;;;37.30;22.57;;;8.20;99.90;;;;;;4976103;28;20529;-52
2021/11/12 03:14:52;;;;;;;36.10;22.27;;;8.20;99.90;;;;;;4979288;28;20221;-52
2021/11/12 03:17:19;;;;;;;41.53;22.20;;;8.10;99.90;;;;;;4976986;28;20243;-51
2021/11/12 03:19:47;;;;;;;39.63;22.40;;;8.00;99.90;;;;;;4979187;28;20228;-54
2021/11/12 03:22:18;;;;;;;36.60;21.73;;;8.00;99.90;;;;;;4977094;28;20358;-52
2021/11/12 03:24:55;;;;;;;40.13;21.20;;;8.10;99.90;;;;;;4979159;28;20205;-54
2021/11/12 03:47:04;;;;;;;37.47;21.53;;;8.00;99.90;;;;;;4980320;28;20264;-54
2021/11/12 04:02:51;;;;;;;38.73;22.33;;;7.70;99.90;;;;;;4950012;28;20325;-53
2021/11/12 04:05:46;;;;;;;36.87;21.50;;;7.70;99.90;;;;;;4982112;28;20240;-52
2021/11/12 04:19:37;;;;;;;45.50;23.53;;;7.40;99.90;;;;;;4981684;28;20651;-54
2021/11/12 05:44:26;;;;;;;44.07;23.37;;;5.30;99.90;;;;;;4980114;28;20650;-54
2021/11/12 05:55:10;;;;;;;40.87;22.13;;;5.50;99.90;;;;;;4926750;28;20248;-53
2021/11/12 05:57:38;;;;;;;43.47;23.27;;;5.70;99.90;;;;;;4979932;28;20289;-53
2021/11/12 06:00:12;;;;;;;46.77;23.53;;;5.70;99.90;;;;;;4980229;28;20540;-52
2021/11/12 06:02:39;;;;;;;39.93;23.17;;;5.70;99.90;;;;;;4979809;28;20250;-53
2021/11/12 06:05:07;;;;;;;45.60;24.53;;;5.80;99.90;;;;;;4981328;28;20295;-55
2021/11/12 06:07:34;;;;;;;47.80;22.87;;;5.80;99.90;;;;;;4980207;28;20211;-52
2021/11/12 06:10:02;;;;;;;45.77;23.37;;;5.20;99.90;;;;;;4979515;28;21310;-54
2021/11/12 06:12:29;;;;;;;47.03;22.50;;;5.30;99.90;;;;;;4979902;28;20232;-53
2021/11/12 06:14:57;;;;;;;50.23;25.77;;;5.00;99.90;;;;;;4980033;28;20204;-52
2021/11/12 06:17:25;;;;;;;57.57;23.93;;;4.70;99.90;;;;;;4977997;28;20222;-52
2021/11/12 06:19:52;;;;;;;57.73;23.37;;;4.70;99.90;;;;;;4979443;28;20236;-52
2021/11/12 06:22:19;;;;;;;56.23;23.40;;;4.70;99.90;;;;;;4960807;28;20242;-52
2021/11/12 06:24:46;;;;;;;48.87;23.60;;;4.70;99.90;;;;;;4979836;28;20203;-54
2021/11/12 06:27:13;;;;;;;49.10;25.00;;;4.90;99.90;;;;;;4978405;28;20255;-53
2021/11/12 06:29:41;;;;;;;56.83;26.10;;;5.10;99.90;;;;;;4978024;28;20205;-53
2021/11/12 06:32:09;;;;;;;49.90;25.77;;;5.10;99.90;;;;;;4979489;28;20210;-51
2021/11/12 06:34:36;;;;;;;44.07;23.37;;;5.30;99.90;;;;;;4981282;28;20210;-52
2021/11/12 06:37:03;;;;;;;44.60;23.87;;;5.30;99.90;;;;;;4978390;28;20237;-52
2021/11/12 06:39:30;;;;;;;46.43;22.53;;;5.00;99.90;;;;;;4979592;28;20227;-52
2021/11/12 06:42:00;;;;;;;51.73;23.63;;;4.70;99.90;;;;;;4975827;28;20735;-52
2021/11/12 06:44:42;;;;;;;46.30;23.20;;;4.50;99.90;;;;;;4976324;28;20263;-54
2021/11/12 06:52:39;;;;;;;44.57;21.03;;;4.30;99.90;;;;;;4976893;28;20657;-53
2021/11/12 06:55:09;;;;;;;42.60;21.00;;;4.20;99.90;;;;;;4977011;28;20212;-52
2021/11/12 06:57:36;;;;;;;43.20;20.33;;;4.20;99.90;;;;;;4974365;28;20321;-52
2021/11/12 07:00:08;;;;;;;36.53;20.20;;;4.20;99.90;;;;;;4979158;28;20233;-53
2021/11/12 07:02:35;;;;;;;43.43;22.70;;;4.40;99.90;;;;;;4978450;28;20844;-52
2021/11/12 07:05:04;;;;;;;43.10;21.27;;;4.50;99.90;;;;;;4979526;28;20221;-53
2021/11/12 07:07:31;;;;;;;34.20;18.67;;;4.30;99.90;;;;;;4977250;28;20744;-52
2021/11/12 07:09:57;;;;;;;36.40;21.23;;;4.30;99.90;;;;;;4978346;28;20707;-53
2021/11/12 07:12:24;;;;;;;43.83;20.23;;;4.40;99.90;;;;;;4976527;28;20232;-52
2021/11/12 07:14:51;;;;;;;38.63;19.83;;;4.30;99.90;;;;;;4978178;28;22328;-53
2021/11/12 07:17:18;;;;;;;41.70;20.30;;;4.20;99.90;;;;;;4977241;28;20226;-54
2021/11/12 07:19:45;;;;;;;33.27;21.37;;;4.40;99.90;;;;;;4978997;28;20317;-52
2021/11/12 07:22:13;;;;;;;48.17;20.30;;;4.50;99.90;;;;;;4977000;28;20262;-55
2021/11/12 07:24:40;;;;;;;35.83;19.77;;;4.20;99.90;;;;;;4978280;28;20654;-53
2021/11/12 07:27:07;;;;;;;37.43;21.00;;;4.20;99.90;;;;;;4976197;28;22673;-52
2021/11/12 07:29:36;;;;;;;31.63;18.70;;;4.30;99.90;;;;;;4977708;28;20949;-53
2021/11/12 07:32:06;;;;;;;38.53;21.13;;;4.40;99.90;;;;;;4975791;28;20231;-51
2021/11/12 07:34:34;;;;;;;37.57;20.57;;;4.30;99.90;;;;;;4976498;28;20213;-53
2021/11/12 07:37:07;;;;;;;35.33;20.37;;;4.30;99.90;;;;;;4974019;28;20228;-55
2021/11/12 07:47:22;;;;;;;39.33;22.43;;;4.80;99.90;;;;;;4973702;28;20203;-54
2021/11/12 07:49:52;;;;;;;37.37;19.77;;;4.80;99.90;;;;;;4978795;28;20217;-54
2021/11/12 07:52:22;;;;;;;38.33;20.90;;;4.50;99.90;;;;;;4977579;28;20236;-53
2021/11/12 07:54:49;;;;;;;42.33;21.33;;;4.40;99.90;;;;;;4978279;28;20885;-53
2021/11/12 07:57:16;;;;;;;34.93;20.60;;;4.40;99.90;;;;;;4975825;28;20744;-54
2021/11/12 07:59:44;;;;;;;36.27;20.23;;;4.30;99.90;;;;;;4979558;28;20321;-53
2021/11/12 08:02:14;;;;;;;35.50;20.20;;;4.20;99.90;;;;;;4974584;28;20281;-54
2021/11/12 08:04:43;;;;;;;38.97;20.40;;;4.40;99.90;;;;;;4978825;28;20237;-54
2021/11/12 08:07:11;;;;;;;38.10;19.77;;;4.30;99.90;;;;;;4976015;28;20629;-53
2021/11/12 08:12:17;;;;;;;40.47;21.77;;;4.20;99.90;;;;;;4972162;28;20205;-54
2021/11/12 08:17:21;;;;;;;39.50;22.17;;;4.20;99.90;;;;;;4958379;28;20268;-55
2021/11/12 08:22:35;;;;;;;39.30;21.37;;;4.30;99.90;;;;;;4971943;28;20723;-54
2021/11/12 08:28:03;;;;;;;41.70;23.03;;;4.10;99.90;;;;;;4976211;28;21471;-54
2021/11/12 08:44:15;;;;;;;34.57;23.83;;;4.60;99.90;;;;;;4945025;29;20227;-53
2021/11/12 08:46:51;;;;;;;37.83;22.80;;;4.90;99.90;;;;;;4938088;29;20340;-55
2021/11/12 08:49:32;;;;;;;33.53;20.87;;;5.00;99.90;;;;;;4945256;29;20254;-55
2021/11/12 08:52:01;;;;;;;36.67;21.87;;;4.60;99.90;;;;;;4938692;29;20378;-55
2021/11/12 08:54:33;;;;;;;34.67;21.03;;;4.70;99.90;;;;;;4943470;29;20598;-53
2021/11/12 08:57:00;;;;;;;36.70;21.27;;;5.00;99.90;;;;;;4940325;29;20317;-54
2021/11/12 08:59:27;;;;;;;32.57;20.57;;;5.40;99.90;;;;;;4935247;29;20200;-55
2021/11/12 09:01:54;;;;;;;35.20;20.63;;;5.40;99.90;;;;;;4928385;29;20289;-54
2021/11/12 09:04:22;;;;;;;35.37;19.87;;;5.20;99.90;;;;;;4931437;29;20295;-53
2021/11/12 09:06:48;;;;;;;32.60;18.90;;;5.70;99.90;;;;;;4951726;28;20215;-55
2021/11/12 09:09:16;;;;;;;29.53;19.40;;;6.10;99.90;;;;;;4975224;28;20277;-54
2021/11/12 09:11:43;;;;;;;32.43;19.73;;;6.10;99.90;;;;;;4973649;28;20210;-53
2021/11/12 09:14:22;;;;;;;28.83;18.70;;;6.20;99.90;;;;;;4975420;28;20290;-54
2021/11/12 09:16:49;;;;;;;29.97;18.23;;;6.70;99.90;;;;;;4966082;28;20272;-53
2021/11/12 09:19:16;;;;;;;29.23;16.77;;;6.60;99.90;;;;;;4972852;28;20229;-52
2021/11/12 09:21:46;;;;;;;25.33;17.70;;;6.90;99.90;;;;;;4971869;28;20298;-53
2021/11/12 09:24:13;;;;;;;25.70;17.03;;;7.30;99.90;;;;;;4971005;28;20294;-54
2021/11/12 09:26:41;;;;;;;25.63;16.67;;;7.00;99.90;;;;;;4976035;28;20316;-54
2021/11/12 09:29:09;;;;;;;26.43;16.97;;;6.90;99.90;;;;;;4976576;28;20208;-55
2021/11/12 09:31:37;;;;;;;25.37;16.53;;;7.30;99.90;;;;;;4978828;28;20293;-54
2021/11/12 09:34:05;;;;;;;22.60;15.90;;;6.80;99.90;;;;;;4978807;28;20306;-53
2021/11/12 09:36:33;;;;;;;27.83;17.53;;;6.90;99.90;;;;;;4978494;28;20330;-53
2021/11/12 09:38:59;;;;;;;26.83;18.07;;;6.70;99.90;;;;;;4978633;28;20269;-54
2021/11/12 09:41:27;;;;;;;26.53;17.20;;;7.20;99.90;;;;;;4975670;28;20198;-53
2021/11/12 09:43:54;;;;;;;25.40;16.70;;;7.20;99.90;;;;;;4978280;28;20294;-53
2021/11/12 09:46:21;;;;;;;28.20;18.83;;;7.50;99.90;;;;;;4978833;28;20225;-53
2021/11/12 09:48:48;;;;;;;26.93;18.13;;;7.30;99.90;;;;;;4979482;28;20301;-54
2021/11/12 09:51:15;;;;;;;30.80;17.67;;;7.40;99.90;;;;;;4977635;28;20226;-53
2021/11/12 09:53:43;;;;;;;30.30;18.17;;;7.50;99.90;;;;;;4980856;28;20671;-54
2021/11/12 09:56:11;;;;;;;29.13;18.27;;;7.60;99.90;;;;;;4982068;28;20222;-53
2021/11/12 09:58:38;;;;;;;30.03;19.07;;;7.50;99.90;;;;;;4977091;28;20509;-54
2021/11/12 10:01:06;;;;;;;25.00;16.93;;;7.50;99.90;;;;;;4973476;28;20210;-53
2021/11/12 10:03:34;;;;;;;26.93;17.70;;;7.40;99.90;;;;;;4978923;28;20200;-53
2021/11/12 10:06:21;;;;;;;25.70;17.43;;;7.50;99.90;;;;;;4979244;28;20199;-52
2021/11/12 10:08:48;;;;;;;27.13;18.87;;;7.70;99.90;;;;;;4976908;28;20203;-53
2021/11/12 10:11:34;;;;;;;27.33;18.07;;;7.90;99.90;;;;;;4974302;28;20199;-53
2021/11/12 10:17:18;;;;;;;25.40;17.33;;;7.90;99.90;;;;;;4972077;28;20343;-53
2021/11/12 10:19:47;;;;;;;29.67;17.70;;;8.20;99.90;;;;;;4964826;28;20231;-53
2021/11/12 10:22:16;;;;;;;26.60;17.20;;;8.20;99.90;;;;;;4975350;28;20247;-54
2021/11/12 10:24:53;;;;;;;24.80;16.10;;;8.20;99.90;;;;;;4977858;28;20196;-54
2021/11/12 10:27:29;;;;;;;25.27;17.37;;;8.60;99.90;;;;;;4975477;28;20299;-54
2021/11/12 10:30:00;;;;;;;27.07;17.20;;;8.20;99.90;;;;;;4979044;28;20206;-53
2021/11/12 10:32:32;;;;;;;26.93;17.00;;;8.20;99.90;;;;;;4976951;28;20216;-52
2021/11/12 10:35:08;;;;;;;24.63;16.67;;;8.30;99.90;;;;;;4978634;28;20288;-53
2021/11/12 10:37:38;;;;;;;29.67;17.30;;;8.80;99.90;;;;;;4977203;28;20321;-52
2021/11/12 10:40:11;;;;;;;23.93;15.93;;;8.80;99.90;;;;;;4980689;28;20235;-53
2021/11/12 10:42:42;;;;;;;22.77;14.97;;;9.10;99.90;;;;;;4976490;28;20272;-53
2021/11/12 10:45:11;;;;;;;25.40;15.77;;;9.30;99.90;;;;;;4974469;28;20303;-53
2021/11/12 10:47:51;;;;;;;24.57;16.43;;;9.40;99.90;;;;;;4976764;28;20227;-53
2021/11/12 10:50:21;;;;;;;22.80;15.47;;;9.40;99.90;;;;;;4979015;28;20210;-53
2021/11/12 10:52:49;;;;;;;27.53;16.67;;;9.20;99.90;;;;;;4975366;28;20214;-52
2021/11/12 10:55:21;;;;;;;24.87;15.10;;;9.50;99.90;;;;;;4973162;28;20811;-53
2021/11/12 10:57:54;;;;;;;22.97;15.97;;;9.40;99.90;;;;;;4956755;28;20241;-53
2021/11/12 11:00:30;;;;;;;19.90;13.73;;;9.90;99.90;;;;;;4975609;28;20597;-52
2021/11/12 11:03:03;;;;;;;21.00;15.07;;;10.20;99.90;;;;;;4974995;28;20282;-52
2021/11/12 11:05:41;;;;;;;25.10;15.10;;;10.00;99.90;;;;;;4976105;28;20662;-53
2021/11/12 11:08:19;;;;;;;24.00;15.73;;;10.20;99.90;;;;;;4974764;28;20222;-52
2021/11/12 11:10:59;;;;;;;23.20;15.27;;;10.00;99.90;;;;;;4972344;28;20350;-51
2021/11/12 11:13:31;;;;;;;22.80;14.67;;;10.60;99.90;;;;;;4975731;28;20618;-52
2021/11/12 11:16:07;;;;;;;21.97;14.80;;;10.80;99.90;;;;;;4975683;28;20235;-52
2021/11/12 11:18:40;;;;;;;24.27;14.97;;;10.80;99.90;;;;;;4978206;28;20305;-53
2021/11/12 11:21:25;;;;;;;23.33;14.83;;;10.10;99.90;;;;;;4973244;28;20246;-52
2021/11/12 11:23:52;;;;;;;22.13;14.77;;;10.40;99.90;;;;;;4976835;28;20751;-51
2021/11/12 11:26:24;;;;;;;22.87;14.80;;;10.50;99.90;;;;;;4978087;28;20272;-52
2021/11/12 11:28:54;;;;;;;22.50;14.73;;;10.40;99.90;;;;;;4977393;28;20241;-52
2021/11/12 11:31:28;;;;;;;23.50;15.73;;;10.90;99.90;;;;;;4979210;28;20218;-53
2021/11/12 11:33:56;;;;;;;25.17;15.23;;;11.20;99.90;;;;;;4979113;28;20219;-51
2021/11/12 11:36:28;;;;;;;19.87;14.33;;;10.90;99.90;;;;;;4961208;28;20671;-51
2021/11/12 11:38:57;;;;;;;21.50;14.47;;;10.80;99.90;;;;;;4978598;28;20232;-51
2021/11/12 11:41:26;;;;;;;23.13;14.83;;;10.50;99.90;;;;;;4978189;28;20868;-53
2021/11/12 11:43:54;;;;;;;21.80;14.70;;;10.50;99.90;;;;;;4977765;28;20238;-52
2021/11/12 11:46:24;;;;;;;21.77;14.67;;;10.60;99.90;;;;;;4974815;28;20198;-52
2021/11/12 11:48:52;;;;;;;20.57;13.57;;;10.40;99.90;;;;;;4979600;28;20202;-51
2021/11/12 11:51:31;;;;;;;20.43;13.77;;;10.70;99.90;;;;;;4979005;28;20233;-51
2021/11/12 11:54:12;;;;;;;21.63;14.27;;;11.00;99.90;;;;;;4973837;28;20703;-52
2021/11/12 11:56:44;;;;;;;23.83;15.57;;;11.00;99.90;;;;;;4973927;28;20285;-52
2021/11/12 11:59:27;;;;;;;23.83;15.20;;;11.00;99.90;;;;;;4975883;28;20219;-52
2021/11/12 12:02:01;;;;;;;21.30;15.27;;;11.00;99.90;;;;;;4975598;28;20327;-52
2021/11/12 12:04:49;;;;;;;22.60;15.33;;;10.70;99.90;;;;;;4975239;28;20651;-51
2021/11/12 12:07:21;;;;;;;20.30;15.07;;;11.00;99.90;;;;;;4980773;28;20258;-52
2021/11/12 12:09:54;;;;;;;19.80;14.47;;;11.20;99.90;;;;;;4977683;28;20226;-52
2021/11/12 12:12:30;;;;;;;26.33;14.97;;;11.20;99.90;;;;;;4976496;28;20215;-50
2021/11/12 12:15:03;;;;;;;22.40;14.60;;;10.90;99.90;;;;;;4971741;28;20294;-52
2021/11/12 12:17:32;;;;;;;18.73;14.10;;;10.80;99.90;;;;;;4976015;28;20318;-52
2021/11/12 13:26:02;;;;;;;19.47;12.80;;;10.60;99.90;;;;;;4980784;28;20210;-50
2021/11/12 13:28:40;;;;;;;18.90;13.90;;;10.90;99.90;;;;;;4977444;28;20265;-49
2021/11/12 13:31:19;;;;;;;21.10;14.23;;;10.70;99.90;;;;;;4977480;28;20231;-50
2021/11/12 13:33:50;;;;;;;22.67;14.00;;;10.80;99.90;;;;;;4977700;28;20249;-49
2021/11/12 13:36:25;;;;;;;17.40;12.83;;;10.80;99.90;;;;;;4980158;28;20230;-49
2021/11/12 13:38:58;;;;;;;20.27;12.57;;;10.70;99.90;;;;;;4980909;28;20916;-49
2021/11/12 13:41:33;;;;;;;20.60;13.60;;;10.70;99.90;;;;;;4980126;28;20204;-48
2021/11/12 13:44:04;;;;;;;18.93;13.23;;;10.70;99.90;;;;;;4979082;28;20605;-49
2021/11/12 13:46:49;;;;;;;18.87;12.40;;;10.60;99.90;;;;;;4977135;28;20609;-49
2021/11/12 13:49:47;;;;;;;18.17;13.07;;;10.60;99.90;;;;;;4979187;28;20206;-48
2021/11/12 13:52:16;;;;;;;19.03;12.67;;;10.70;99.90;;;;;;4977155;28;20249;-49
2021/11/12 13:54:44;;;;;;;18.57;12.13;;;10.70;99.90;;;;;;4978414;28;20201;-48
2021/11/12 13:57:15;;;;;;;20.20;12.50;;;10.60;99.90;;;;;;4974035;28;20209;-49
2021/11/12 14:00:01;;;;;;;21.70;12.43;;;10.60;99.90;;;;;;4974619;28;20686;-48
2021/11/12 14:02:30;;;;;;;20.63;12.47;;;10.70;99.90;;;;;;4970327;28;20203;-50
2021/11/12 14:05:11;;;;;;;18.97;13.20;;;10.90;99.90;;;;;;4979754;28;20687;-50
2021/11/12 14:07:39;;;;;;;17.87;12.47;;;10.80;99.90;;;;;;4973974;28;20261;-50
2021/11/12 14:10:08;;;;;;;19.33;13.63;;;10.80;99.90;;;;;;4977890;28;20214;-51
2021/11/12 14:12:36;;;;;;;19.17;12.67;;;10.80;99.90;;;;;;4976754;28;20693;-49
2021/11/12 14:15:26;;;;;;;18.10;12.40;;;10.80;99.90;;;;;;4973832;28;20338;-49
2021/11/12 14:40:28;;;;;;;19.10;11.43;;;10.60;99.90;;;;;;4973262;28;20906;-49
2021/11/12 14:45:28;;;;;;;16.97;12.00;;;10.60;99.90;;;;;;4990607;28;21706;-50
2021/11/12 14:48:00;;;;;;;22.53;12.93;;;10.60;99.90;;;;;;4991970;28;20260;-49
2021/11/12 14:50:44;;;;;;;17.63;11.73;;;10.60;99.90;;;;;;4992847;28;21011;-49
2021/11/12 14:55:55;;;;;;;20.93;12.63;;;10.50;99.90;;;;;;4985412;28;20752;-49
2021/11/12 14:58:23;;;;;;;17.80;11.47;;;10.50;99.90;;;;;;4977508;28;20281;-49
2021/11/12 15:01:04;;;;;;;17.27;10.87;;;10.50;99.90;;;;;;4987519;28;20204;-52
2021/11/12 15:03:31;;;;;;;18.43;11.60;;;10.40;99.90;;;;;;4987481;28;20263;-50
2021/11/12 15:06:01;;;;;;;17.20;10.93;;;10.50;99.90;;;;;;4989572;28;20256;-48
2021/11/12 15:08:29;;;;;;;18.53;10.90;;;10.50;99.90;;;;;;4987554;28;20354;-49
2021/11/12 15:10:58;;;;;;;18.30;11.50;;;10.50;99.90;;;;;;4989606;28;20312;-48
2021/11/12 15:13:28;;;;;;;14.30;10.33;;;10.50;99.90;;;;;;4981451;28;20338;-50
2021/11/12 15:15:56;;;;;;;16.63;10.67;;;10.50;99.90;;;;;;4991619;28;20301;-49
2021/11/12 15:18:23;;;;;;;15.47;10.40;;;10.50;99.90;;;;;;4989855;28;20260;-49
2021/11/12 15:20:51;;;;;;;14.90;10.17;;;10.60;99.90;;;;;;4985945;28;20782;-49
2021/11/12 15:23:42;;;;;;;14.33;10.23;;;10.60;99.90;;;;;;4985175;28;20908;-50
2021/11/12 15:31:45;;;;;;;16.77;11.03;;;10.60;99.90;;;;;;4984017;28;20600;-49
2021/11/12 15:34:02;;;;;;;14.63;10.40;;;10.50;99.90;;;;;;4979999;28;20205;-49
2021/11/12 15:36:30;;;;;;;13.33;10.00;;;10.60;99.90;;;;;;4987182;28;21200;-49
2021/11/12 15:39:06;;;;;;;14.27;9.67;;;10.60;99.90;;;;;;4983928;28;20218;-48
2021/11/12 15:44:36;;;;;;;17.90;10.63;;;10.60;99.90;;;;;;4946680;28;20552;-49
2021/11/12 15:47:22;;;;;;;15.93;9.73;;;10.60;99.90;;;;;;4984387;28;20206;-48
2021/11/12 15:49:54;;;;;;;16.17;11.13;;;10.70;99.90;;;;;;4987934;28;20299;-49
2021/11/12 15:52:28;;;;;;;13.80;9.37;;;10.60;99.90;;;;;;4987104;28;20217;-51
2021/11/12 15:55:05;;;;;;;14.20;9.17;;;10.70;99.90;;;;;;4991106;28;20667;-49
2021/11/12 16:00:25;;;;;;;14.17;8.83;;;10.60;99.90;;;;;;4977001;28;20518;-51
2021/11/12 16:03:25;;;;;;;15.53;9.70;;;10.60;99.90;;;;;;4975483;28;20221;-50
2021/11/12 16:09:03;;;;;;;15.23;9.50;;;10.50;99.90;;;;;;4982788;28;20620;-49
2021/11/12 16:19:17;;;;;;;15.20;9.30;;;10.50;99.90;;;;;;4979303;28;20241;-49
2021/11/12 16:22:07;;;;;;;19.10;9.63;;;10.40;99.90;;;;;;4982206;28;20533;-48
2021/11/12 16:27:23;;;;;;;17.13;10.07;;;10.40;99.90;;;;;;4984872;28;20252;-51
2021/11/12 16:29:54;;;;;;;15.73;10.10;;;10.40;99.90;;;;;;4964813;28;20289;-49
2021/11/12 16:32:30;;;;;;;12.97;9.77;;;10.40;99.90;;;;;;4979555;28;20202;-50
2021/11/12 16:34:59;;;;;;;15.37;9.70;;;10.50;99.90;;;;;;4976975;28;20280;-48
2021/11/12 16:37:27;;;;;;;16.07;9.40;;;10.40;99.90;;;;;;4988242;28;20681;-51
2021/11/12 16:45:28;;;;;;;15.47;10.60;;;10.20;99.90;;;;;;4977943;28;20290;-49
2021/11/12 16:56:24;;;;;;;17.17;10.63;;;10.20;99.90;;;;;;4979472;28;20780;-49
2021/11/12 16:59:02;;;;;;;16.87;10.07;;;10.10;99.90;;;;;;4977873;28;20276;-48
2021/11/12 17:07:02;;;;;;;12.77;9.23;;;10.10;99.90;;;;;;4978409;28;20244;-51
2021/11/12 17:17:35;;;;;;;11.67;7.87;;;10.00;99.90;;;;;;4979695;28;20238;-49
2021/11/12 17:20:11;;;;;;;9.47;7.83;;;10.00;99.90;;;;;;4976831;28;20750;-52
2021/11/12 17:47:31;;;;;;;10.53;7.63;;;10.10;99.90;;;;;;4979874;28;20256;-48
2021/11/12 18:03:54;;;;;;;11.77;7.83;;;10.20;99.90;;;;;;4980464;28;20211;-49
2021/11/12 18:12:07;;;;;;;11.20;7.30;;;10.00;99.90;;;;;;4979281;28;20206;-49
2021/11/12 21:47:10;;;;;;;16.07;10.57;;;9.40;99.90;;;;;;4946118;28;20333;-48
2021/11/12 21:49:37;;;;;;;18.57;11.43;;;9.40;99.90;;;;;;4952395;28;20573;-52
2021/11/12 21:52:05;;;;;;;14.43;10.43;;;9.40;99.90;;;;;;4952087;28;20268;-49
2021/11/12 21:54:32;;;;;;;15.50;10.67;;;9.40;99.90;;;;;;4944831;28;20684;-49
2021/11/12 21:57:00;;;;;;;24.57;11.00;;;9.40;99.90;;;;;;4948015;28;20263;-50
2021/11/12 21:59:28;;;;;;;14.67;10.30;;;9.40;99.90;;;;;;4947699;28;20302;-48
2021/11/12 22:01:56;;;;;;;18.43;11.10;;;9.40;99.90;;;;;;4946821;28;20235;-49
2021/11/12 22:04:24;;;;;;;15.03;10.83;;;9.40;99.90;;;;;;4947358;28;20208;-48
2021/11/12 22:06:51;;;;;;;19.07;11.07;;;9.50;99.90;;;;;;4951620;28;20822;-50
2021/11/12 22:09:18;;;;;;;16.50;11.10;;;9.50;99.90;;;;;;4949020;28;20259;-50
2021/11/12 22:11:45;;;;;;;20.07;11.80;;;9.50;99.90;;;;;;4948481;28;20211;-49
2021/11/12 22:14:12;;;;;;;16.43;11.13;;;9.50;99.90;;;;;;4948215;28;20207;-48
2021/11/12 22:16:38;;;;;;;15.60;10.77;;;9.50;99.90;;;;;;4947234;28;20624;-50
2021/11/12 22:19:05;;;;;;;15.10;11.27;;;9.50;99.90;;;;;;4952619;28;20337;-50
2021/11/12 22:21:32;;;;;;;16.67;10.90;;;9.50;99.90;;;;;;4947457;28;20211;-48
2021/11/12 22:24:00;;;;;;;17.20;10.80;;;9.50;99.90;;;;;;4968780;28;20696;-48
2021/11/12 22:26:27;;;;;;;15.40;10.57;;;9.40;99.90;;;;;;4987374;28;20205;-50
2021/11/12 22:28:54;;;;;;;18.60;11.47;;;9.30;99.90;;;;;;4990347;28;20312;-50
2021/11/12 22:31:22;;;;;;;20.00;12.33;;;9.20;99.90;;;;;;4992376;28;20524;-49
2021/11/12 22:33:50;;;;;;;16.33;10.53;;;9.10;99.90;;;;;;4969009;28;20211;-49
2021/11/12 22:36:17;;;;;;;15.73;9.90;;;9.00;99.90;;;;;;4988440;28;20500;-48
2021/11/12 22:38:45;;;;;;;21.60;13.33;;;8.90;99.90;;;;;;4986044;28;20901;-51
2021/11/12 22:41:12;;;;;;;19.50;12.80;;;8.90;99.90;;;;;;4979169;28;20226;-48
2021/11/12 22:43:39;;;;;;;22.13;13.17;;;8.90;99.90;;;;;;4983876;28;20198;-51
2021/11/12 22:46:07;;;;;;;19.70;13.07;;;8.90;99.90;;;;;;4989408;28;20263;-49
2021/11/12 22:48:34;;;;;;;22.07;11.93;;;8.90;99.90;;;;;;4990724;28;20569;-49
2021/11/12 22:51:02;;;;;;;21.10;14.00;;;8.90;99.90;;;;;;4984522;28;20220;-49
2021/11/12 22:53:29;;;;;;;20.73;12.37;;;8.90;99.90;;;;;;4988530;28;20235;-49
2021/11/12 22:55:56;;;;;;;20.80;13.40;;;8.90;99.90;;;;;;4984471;28;20317;-48
2021/11/12 22:58:23;;;;;;;20.27;11.93;;;8.90;99.90;;;;;;4992023;28;20312;-48
2021/11/12 23:00:50;;;;;;;20.67;14.10;;;8.80;99.90;;;;;;4989697;28;20947;-49
2021/11/12 23:03:18;;;;;;;17.80;12.10;;;8.90;99.90;;;;;;4983965;28;21006;-52
2021/11/12 23:05:45;;;;;;;22.03;12.93;;;8.90;99.90;;;;;;4988678;28;20314;-51